sensor_id;sensor_type;location;lat;lon;timestamp;P1;durP1;ratioP1;P2;durP2;ratioP2
45366;SDS011;31100;55.848;37.636;2023-02-15T00:01:34;3.40;;;1.17;;
45366;SDS011;31100;55.848;37.636;2023-02-15T00:04:00;6.40;;;0.98;;
45366;SDS011;31100;55.848;37.636;2023-02-15T00:06:26;4.45;;;0.90;;
45366;SDS011;31100;55.848;37.636;2023-02-15T00:08:52;3.40;;;1.15;;
45366;SDS011;31100;55.848;37.636;2023-02-15T00:11:18;5.90;;;1.88;;
45366;SDS011;31100;55.848;37.636;2023-02-15T00:14:03;4.88;;;1.52;;
45366;SDS011;31100;55.848;37.636;2023-02-15T00:16:30;5.50;;;1.10;;
45366;SDS011;31100;55.848;37.636;2023-02-15T00:18:55;4.63;;;1.05;;
45366;SDS011;31100;55.848;37.636;2023-02-15T00:21:21;4.72;;;0.90;;
45366;SDS011;31100;55.848;37.636;2023-02-15T00:23:46;5.43;;;1.20;;
45366;SDS011;31100;55.848;37.636;2023-02-15T00:26:12;2.88;;;0.90;;
45366;SDS011;31100;55.848;37.636;2023-02-15T00:28:38;4.00;;;1.17;;
45366;SDS011;31100;55.848;37.636;2023-02-15T00:31:07;4.38;;;1.05;;
45366;SDS011;31100;55.848;37.636;2023-02-15T00:33:34;4.40;;;0.88;;
45366;SDS011;31100;55.848;37.636;2023-02-15T00:36:01;10.20;;;1.38;;
45366;SDS011;31100;55.848;37.636;2023-02-15T00:38:27;9.38;;;1.20;;
45366;SDS011;31100;55.848;37.636;2023-02-15T00:40:54;4.68;;;1.08;;
45366;SDS011;31100;55.848;37.636;2023-02-15T00:43:20;2.83;;;1.08;;
45366;SDS011;31100;55.848;37.636;2023-02-15T00:45:46;4.57;;;0.95;;
45366;SDS011;31100;55.848;37.636;2023-02-15T00:48:11;4.13;;;1.25;;
45366;SDS011;31100;55.848;37.636;2023-02-15T00:50:37;5.53;;;1.15;;
45366;SDS011;31100;55.848;37.636;2023-02-15T00:53:02;5.93;;;1.48;;
45366;SDS011;31100;55.848;37.636;2023-02-15T00:55:28;4.25;;;0.90;;
45366;SDS011;31100;55.848;37.636;2023-02-15T00:57:53;6.10;;;1.10;;
45366;SDS011;31100;55.848;37.636;2023-02-15T01:00:19;3.45;;;1.15;;
45366;SDS011;31100;55.848;37.636;2023-02-15T01:02:46;6.07;;;1.15;;
45366;SDS011;31100;55.848;37.636;2023-02-15T01:05:11;5.38;;;1.10;;
45366;SDS011;31100;55.848;37.636;2023-02-15T01:07:37;4.53;;;1.02;;
45366;SDS011;31100;55.848;37.636;2023-02-15T01:10:04;3.67;;;1.15;;
45366;SDS011;31100;55.848;37.636;2023-02-15T01:12:31;4.03;;;0.90;;
45366;SDS011;31100;55.848;37.636;2023-02-15T01:14:56;4.53;;;1.13;;
45366;SDS011;31100;55.848;37.636;2023-02-15T01:17:22;3.30;;;1.00;;
45366;SDS011;31100;55.848;37.636;2023-02-15T01:19:47;3.13;;;0.82;;
45366;SDS011;31100;55.848;37.636;2023-02-15T01:22:13;4.20;;;0.80;;
45366;SDS011;31100;55.848;37.636;2023-02-15T01:24:38;3.53;;;0.98;;
45366;SDS011;31100;55.848;37.636;2023-02-15T01:27:04;6.22;;;1.10;;
45366;SDS011;31100;55.848;37.636;2023-02-15T01:29:30;2.42;;;0.93;;
45366;SDS011;31100;55.848;37.636;2023-02-15T01:31:55;4.20;;;0.98;;
45366;SDS011;31100;55.848;37.636;2023-02-15T01:34:20;3.10;;;1.15;;
45366;SDS011;31100;55.848;37.636;2023-02-15T01:36:46;5.88;;;2.00;;
45366;SDS011;31100;55.848;37.636;2023-02-15T01:39:12;3.58;;;1.08;;
45366;SDS011;31100;55.848;37.636;2023-02-15T01:41:37;8.93;;;1.88;;
45366;SDS011;31100;55.848;37.636;2023-02-15T01:44:03;3.35;;;1.17;;
45366;SDS011;31100;55.848;37.636;2023-02-15T01:46:38;6.47;;;1.00;;
45366;SDS011;31100;55.848;37.636;2023-02-15T01:51:42;4.93;;;1.15;;
45366;SDS011;31100;55.848;37.636;2023-02-15T01:54:10;4.60;;;1.42;;
45366;SDS011;31100;55.848;37.636;2023-02-15T01:56:40;4.65;;;1.05;;
45366;SDS011;31100;55.848;37.636;2023-02-15T01:59:08;5.00;;;1.10;;
45366;SDS011;31100;55.848;37.636;2023-02-15T02:01:36;5.35;;;1.48;;
45366;SDS011;31100;55.848;37.636;2023-02-15T02:04:16;3.08;;;1.00;;
45366;SDS011;31100;55.848;37.636;2023-02-15T02:06:45;4.07;;;1.02;;
45366;SDS011;31100;55.848;37.636;2023-02-15T02:09:12;4.60;;;1.00;;
45366;SDS011;31100;55.848;37.636;2023-02-15T02:11:38;3.13;;;1.10;;
45366;SDS011;31100;55.848;37.636;2023-02-15T02:14:04;5.57;;;1.05;;
45366;SDS011;31100;55.848;37.636;2023-02-15T02:16:52;3.95;;;0.90;;
45366;SDS011;31100;55.848;37.636;2023-02-15T02:30:19;4.60;;;1.15;;
45366;SDS011;31100;55.848;37.636;2023-02-15T02:46:19;5.13;;;1.48;;
45366;SDS011;31100;55.848;37.636;2023-02-15T02:48:48;4.38;;;1.75;;
45366;SDS011;31100;55.848;37.636;2023-02-15T02:51:14;3.15;;;1.00;;
45366;SDS011;31100;55.848;37.636;2023-02-15T02:53:46;4.47;;;1.30;;
45366;SDS011;31100;55.848;37.636;2023-02-15T02:56:18;5.72;;;1.30;;
45366;SDS011;31100;55.848;37.636;2023-02-15T02:58:49;4.15;;;1.30;;
45366;SDS011;31100;55.848;37.636;2023-02-15T03:01:24;6.13;;;1.48;;
45366;SDS011;31100;55.848;37.636;2023-02-15T03:03:55;6.93;;;1.38;;
45366;SDS011;31100;55.848;37.636;2023-02-15T03:08:59;5.47;;;2.45;;
45366;SDS011;31100;55.848;37.636;2023-02-15T03:11:28;4.20;;;1.35;;
45366;SDS011;31100;55.848;37.636;2023-02-15T03:13:54;5.13;;;1.42;;
45366;SDS011;31100;55.848;37.636;2023-02-15T03:16:20;6.53;;;1.40;;
45366;SDS011;31100;55.848;37.636;2023-02-15T03:19:01;4.65;;;1.10;;
45366;SDS011;31100;55.848;37.636;2023-02-15T03:21:38;4.68;;;1.40;;
45366;SDS011;31100;55.848;37.636;2023-02-15T03:24:15;4.93;;;1.27;;
45366;SDS011;31100;55.848;37.636;2023-02-15T03:26:43;6.93;;;2.28;;
45366;SDS011;31100;55.848;37.636;2023-02-15T03:29:11;6.20;;;1.45;;
45366;SDS011;31100;55.848;37.636;2023-02-15T03:31:38;4.95;;;1.50;;
45366;SDS011;31100;55.848;37.636;2023-02-15T03:34:06;5.15;;;1.35;;
45366;SDS011;31100;55.848;37.636;2023-02-15T03:44:46;4.95;;;1.40;;
45366;SDS011;31100;55.848;37.636;2023-02-15T03:47:18;5.45;;;1.70;;
45366;SDS011;31100;55.848;37.636;2023-02-15T03:49:53;3.80;;;1.55;;
45366;SDS011;31100;55.848;37.636;2023-02-15T03:52:23;6.05;;;1.40;;
45366;SDS011;31100;55.848;37.636;2023-02-15T03:54:50;4.43;;;1.40;;
45366;SDS011;31100;55.848;37.636;2023-02-15T03:57:23;6.25;;;1.70;;
45366;SDS011;31100;55.848;37.636;2023-02-15T04:00:13;9.77;;;1.92;;
45366;SDS011;31100;55.848;37.636;2023-02-15T04:05:40;4.28;;;1.20;;
45366;SDS011;31100;55.848;37.636;2023-02-15T04:08:06;4.22;;;1.40;;
45366;SDS011;31100;55.848;37.636;2023-02-15T04:10:32;4.00;;;1.40;;
45366;SDS011;31100;55.848;37.636;2023-02-15T04:13:16;4.82;;;2.30;;
45366;SDS011;31100;55.848;37.636;2023-02-15T04:15:41;5.22;;;1.20;;
45366;SDS011;31100;55.848;37.636;2023-02-15T04:18:25;2.85;;;1.05;;
45366;SDS011;31100;55.848;37.636;2023-02-15T04:21:09;5.00;;;1.38;;
45366;SDS011;31100;55.848;37.636;2023-02-15T04:23:53;4.70;;;1.48;;
45366;SDS011;31100;55.848;37.636;2023-02-15T04:26:37;5.95;;;1.85;;
45366;SDS011;31100;55.848;37.636;2023-02-15T04:29:03;3.88;;;1.40;;
45366;SDS011;31100;55.848;37.636;2023-02-15T04:31:28;4.53;;;1.02;;
45366;SDS011;31100;55.848;37.636;2023-02-15T04:33:54;4.30;;;1.27;;
45366;SDS011;31100;55.848;37.636;2023-02-15T04:36:19;3.97;;;1.38;;
45366;SDS011;31100;55.848;37.636;2023-02-15T04:38:45;6.63;;;1.55;;
45366;SDS011;31100;55.848;37.636;2023-02-15T04:41:10;3.85;;;1.45;;
45366;SDS011;31100;55.848;37.636;2023-02-15T04:43:37;5.63;;;1.20;;
45366;SDS011;31100;55.848;37.636;2023-02-15T04:46:03;4.68;;;1.42;;
45366;SDS011;31100;55.848;37.636;2023-02-15T04:48:29;3.63;;;1.25;;
45366;SDS011;31100;55.848;37.636;2023-02-15T04:50:55;3.00;;;1.30;;
45366;SDS011;31100;55.848;37.636;2023-02-15T04:53:20;4.20;;;1.80;;
45366;SDS011;31100;55.848;37.636;2023-02-15T04:55:46;4.35;;;1.45;;
45366;SDS011;31100;55.848;37.636;2023-02-15T04:58:11;6.07;;;1.45;;
45366;SDS011;31100;55.848;37.636;2023-02-15T05:00:37;4.32;;;1.75;;
45366;SDS011;31100;55.848;37.636;2023-02-15T05:03:02;7.18;;;1.58;;
45366;SDS011;31100;55.848;37.636;2023-02-15T05:05:28;7.10;;;1.83;;
45366;SDS011;31100;55.848;37.636;2023-02-15T05:07:54;3.97;;;1.40;;
45366;SDS011;31100;55.848;37.636;2023-02-15T05:10:19;4.70;;;1.63;;
45366;SDS011;31100;55.848;37.636;2023-02-15T05:12:45;10.20;;;1.45;;
45366;SDS011;31100;55.848;37.636;2023-02-15T05:15:11;6.25;;;1.58;;
45366;SDS011;31100;55.848;37.636;2023-02-15T05:17:36;4.13;;;1.20;;
45366;SDS011;31100;55.848;37.636;2023-02-15T05:20:02;4.75;;;1.60;;
45366;SDS011;31100;55.848;37.636;2023-02-15T05:22:28;5.28;;;1.40;;
45366;SDS011;31100;55.848;37.636;2023-02-15T05:24:54;4.63;;;1.38;;
45366;SDS011;31100;55.848;37.636;2023-02-15T05:27:38;6.93;;;1.73;;
45366;SDS011;31100;55.848;37.636;2023-02-15T05:30:22;4.05;;;1.17;;
45366;SDS011;31100;55.848;37.636;2023-02-15T05:32:47;5.25;;;1.67;;
45366;SDS011;31100;55.848;37.636;2023-02-15T05:35:14;5.88;;;1.40;;
45366;SDS011;31100;55.848;37.636;2023-02-15T05:37:40;5.07;;;1.65;;
45366;SDS011;31100;55.848;37.636;2023-02-15T05:40:06;6.32;;;1.73;;
45366;SDS011;31100;55.848;37.636;2023-02-15T05:42:32;4.57;;;1.45;;
45366;SDS011;31100;55.848;37.636;2023-02-15T05:44:57;5.68;;;1.90;;
45366;SDS011;31100;55.848;37.636;2023-02-15T05:47:23;6.85;;;1.65;;
45366;SDS011;31100;55.848;37.636;2023-02-15T05:49:48;6.07;;;1.80;;
45366;SDS011;31100;55.848;37.636;2023-02-15T05:52:14;5.55;;;2.17;;
45366;SDS011;31100;55.848;37.636;2023-02-15T05:54:39;8.85;;;1.90;;
45366;SDS011;31100;55.848;37.636;2023-02-15T05:57:05;6.25;;;2.00;;
45366;SDS011;31100;55.848;37.636;2023-02-15T05:59:30;8.73;;;2.53;;
45366;SDS011;31100;55.848;37.636;2023-02-15T06:01:56;4.75;;;1.67;;
45366;SDS011;31100;55.848;37.636;2023-02-15T06:04:22;5.60;;;1.77;;
45366;SDS011;31100;55.848;37.636;2023-02-15T06:06:47;4.75;;;1.90;;
45366;SDS011;31100;55.848;37.636;2023-02-15T06:09:13;7.70;;;2.63;;
45366;SDS011;31100;55.848;37.636;2023-02-15T06:11:39;6.15;;;2.28;;
45366;SDS011;31100;55.848;37.636;2023-02-15T06:14:05;8.15;;;2.47;;
45366;SDS011;31100;55.848;37.636;2023-02-15T06:16:31;4.47;;;2.03;;
45366;SDS011;31100;55.848;37.636;2023-02-15T06:18:56;7.88;;;2.47;;
45366;SDS011;31100;55.848;37.636;2023-02-15T06:21:24;5.47;;;2.38;;
45366;SDS011;31100;55.848;37.636;2023-02-15T06:23:49;6.25;;;2.45;;
45366;SDS011;31100;55.848;37.636;2023-02-15T06:26:15;5.28;;;2.33;;
45366;SDS011;31100;55.848;37.636;2023-02-15T06:28:40;7.00;;;2.47;;
45366;SDS011;31100;55.848;37.636;2023-02-15T06:31:06;6.95;;;2.00;;
45366;SDS011;31100;55.848;37.636;2023-02-15T06:33:31;6.72;;;2.50;;
45366;SDS011;31100;55.848;37.636;2023-02-15T06:35:59;6.22;;;1.80;;
45366;SDS011;31100;55.848;37.636;2023-02-15T06:38:24;7.20;;;2.75;;
45366;SDS011;31100;55.848;37.636;2023-02-15T06:40:50;5.28;;;2.15;;
45366;SDS011;31100;55.848;37.636;2023-02-15T06:43:15;5.35;;;2.20;;
45366;SDS011;31100;55.848;37.636;2023-02-15T06:45:41;5.95;;;2.03;;
45366;SDS011;31100;55.848;37.636;2023-02-15T06:48:07;4.60;;;1.85;;
45366;SDS011;31100;55.848;37.636;2023-02-15T06:50:33;5.90;;;2.33;;
45366;SDS011;31100;55.848;37.636;2023-02-15T06:52:59;5.00;;;2.20;;
45366;SDS011;31100;55.848;37.636;2023-02-15T06:55:25;5.43;;;1.98;;
45366;SDS011;31100;55.848;37.636;2023-02-15T06:57:50;13.43;;;2.58;;
45366;SDS011;31100;55.848;37.636;2023-02-15T07:00:16;7.10;;;2.03;;
45366;SDS011;31100;55.848;37.636;2023-02-15T07:02:43;6.47;;;1.90;;
45366;SDS011;31100;55.848;37.636;2023-02-15T07:05:09;6.18;;;2.13;;
45366;SDS011;31100;55.848;37.636;2023-02-15T07:07:35;4.72;;;1.73;;
45366;SDS011;31100;55.848;37.636;2023-02-15T07:10:00;12.00;;;5.38;;
45366;SDS011;31100;55.848;37.636;2023-02-15T07:12:28;6.30;;;2.00;;
45366;SDS011;31100;55.848;37.636;2023-02-15T07:15:06;5.53;;;2.20;;
45366;SDS011;31100;55.848;37.636;2023-02-15T07:17:34;8.05;;;2.00;;
45366;SDS011;31100;55.848;37.636;2023-02-15T07:20:00;8.57;;;2.60;;
45366;SDS011;31100;55.848;37.636;2023-02-15T07:22:29;4.13;;;1.80;;
45366;SDS011;31100;55.848;37.636;2023-02-15T07:24:54;7.20;;;2.22;;
45366;SDS011;31100;55.848;37.636;2023-02-15T07:27:20;10.07;;;2.80;;
45366;SDS011;31100;55.848;37.636;2023-02-15T07:29:46;6.03;;;2.00;;
45366;SDS011;31100;55.848;37.636;2023-02-15T07:32:12;6.78;;;2.22;;
45366;SDS011;31100;55.848;37.636;2023-02-15T07:34:38;7.10;;;2.40;;
45366;SDS011;31100;55.848;37.636;2023-02-15T07:37:05;7.45;;;2.40;;
45366;SDS011;31100;55.848;37.636;2023-02-15T07:39:31;5.22;;;2.53;;
45366;SDS011;31100;55.848;37.636;2023-02-15T07:41:56;5.50;;;2.20;;
45366;SDS011;31100;55.848;37.636;2023-02-15T07:44:22;6.05;;;2.47;;
45366;SDS011;31100;55.848;37.636;2023-02-15T07:46:47;11.45;;;3.33;;
45366;SDS011;31100;55.848;37.636;2023-02-15T07:49:13;8.90;;;2.63;;
45366;SDS011;31100;55.848;37.636;2023-02-15T07:51:39;7.72;;;3.00;;
45366;SDS011;31100;55.848;37.636;2023-02-15T07:54:06;7.05;;;2.65;;
45366;SDS011;31100;55.848;37.636;2023-02-15T07:56:31;4.68;;;2.58;;
45366;SDS011;31100;55.848;37.636;2023-02-15T07:58:58;7.72;;;2.95;;
45366;SDS011;31100;55.848;37.636;2023-02-15T08:01:30;7.70;;;2.50;;
45366;SDS011;31100;55.848;37.636;2023-02-15T08:03:57;7.82;;;2.67;;
45366;SDS011;31100;55.848;37.636;2023-02-15T08:06:24;6.70;;;2.50;;
45366;SDS011;31100;55.848;37.636;2023-02-15T08:08:52;6.03;;;2.42;;
45366;SDS011;31100;55.848;37.636;2023-02-15T08:13:55;6.77;;;2.50;;
45366;SDS011;31100;55.848;37.636;2023-02-15T08:16:29;7.80;;;2.25;;
45366;SDS011;31100;55.848;37.636;2023-02-15T08:18:57;7.43;;;2.70;;
45366;SDS011;31100;55.848;37.636;2023-02-15T08:21:24;6.30;;;2.72;;
45366;SDS011;31100;55.848;37.636;2023-02-15T08:23:52;4.57;;;1.90;;
45366;SDS011;31100;55.848;37.636;2023-02-15T08:26:17;5.22;;;2.15;;
45366;SDS011;31100;55.848;37.636;2023-02-15T08:28:43;4.78;;;1.70;;
45366;SDS011;31100;55.848;37.636;2023-02-15T08:31:10;4.25;;;1.80;;
45366;SDS011;31100;55.848;37.636;2023-02-15T08:33:37;5.10;;;2.20;;
45366;SDS011;31100;55.848;37.636;2023-02-15T08:36:04;4.40;;;2.17;;
45366;SDS011;31100;55.848;37.636;2023-02-15T08:38:30;14.38;;;6.80;;
45366;SDS011;31100;55.848;37.636;2023-02-15T08:40:57;5.45;;;1.98;;
45366;SDS011;31100;55.848;37.636;2023-02-15T08:43:23;6.35;;;2.00;;
45366;SDS011;31100;55.848;37.636;2023-02-15T08:45:48;6.40;;;2.30;;
45366;SDS011;31100;55.848;37.636;2023-02-15T08:48:14;5.35;;;2.00;;
45366;SDS011;31100;55.848;37.636;2023-02-15T08:50:39;3.70;;;1.83;;
45366;SDS011;31100;55.848;37.636;2023-02-15T08:53:05;5.13;;;2.35;;
45366;SDS011;31100;55.848;37.636;2023-02-15T08:55:30;5.85;;;2.10;;
45366;SDS011;31100;55.848;37.636;2023-02-15T08:57:56;5.72;;;2.25;;
45366;SDS011;31100;55.848;37.636;2023-02-15T09:00:22;4.45;;;1.90;;
45366;SDS011;31100;55.848;37.636;2023-02-15T09:02:48;4.50;;;1.98;;
45366;SDS011;31100;55.848;37.636;2023-02-15T09:05:13;5.20;;;1.90;;
45366;SDS011;31100;55.848;37.636;2023-02-15T09:07:39;3.45;;;1.33;;
45366;SDS011;31100;55.848;37.636;2023-02-15T09:10:05;5.05;;;2.08;;
45366;SDS011;31100;55.848;37.636;2023-02-15T09:12:31;5.35;;;2.33;;
45366;SDS011;31100;55.848;37.636;2023-02-15T09:14:57;5.70;;;2.08;;
45366;SDS011;31100;55.848;37.636;2023-02-15T09:17:23;5.32;;;2.20;;
45366;SDS011;31100;55.848;37.636;2023-02-15T09:19:49;7.18;;;2.20;;
45366;SDS011;31100;55.848;37.636;2023-02-15T09:22:14;4.82;;;2.10;;
45366;SDS011;31100;55.848;37.636;2023-02-15T09:24:40;3.70;;;1.90;;
45366;SDS011;31100;55.848;37.636;2023-02-15T09:27:05;5.22;;;2.40;;
45366;SDS011;31100;55.848;37.636;2023-02-15T09:29:31;7.97;;;2.05;;
45366;SDS011;31100;55.848;37.636;2023-02-15T09:31:56;7.05;;;2.17;;
45366;SDS011;31100;55.848;37.636;2023-02-15T09:34:22;4.80;;;1.98;;
45366;SDS011;31100;55.848;37.636;2023-02-15T09:36:48;4.55;;;2.10;;
45366;SDS011;31100;55.848;37.636;2023-02-15T09:39:15;7.18;;;1.90;;
45366;SDS011;31100;55.848;37.636;2023-02-15T09:44:36;5.00;;;2.20;;
45366;SDS011;31100;55.848;37.636;2023-02-15T09:58:18;5.78;;;2.10;;
45366;SDS011;31100;55.848;37.636;2023-02-15T10:14:11;3.33;;;1.95;;
45366;SDS011;31100;55.848;37.636;2023-02-15T10:22:52;3.85;;;1.73;;
45366;SDS011;31100;55.848;37.636;2023-02-15T10:28:46;3.70;;;1.40;;
45366;SDS011;31100;55.848;37.636;2023-02-15T10:31:23;5.30;;;1.85;;
45366;SDS011;31100;55.848;37.636;2023-02-15T10:44:40;3.17;;;1.38;;
45366;SDS011;31100;55.848;37.636;2023-02-15T10:50:29;3.08;;;1.30;;
45366;SDS011;31100;55.848;37.636;2023-02-15T10:56:24;2.60;;;1.02;;
45366;SDS011;31100;55.848;37.636;2023-02-15T11:01:50;3.35;;;1.38;;
45366;SDS011;31100;55.848;37.636;2023-02-15T11:07:26;3.78;;;1.38;;
45366;SDS011;31100;55.848;37.636;2023-02-15T11:12:38;2.08;;;1.00;;
45366;SDS011;31100;55.848;37.636;2023-02-15T11:15:16;3.25;;;1.25;;
45366;SDS011;31100;55.848;37.636;2023-02-15T11:17:52;1.33;;;0.80;;
45366;SDS011;31100;55.848;37.636;2023-02-15T11:20:29;2.60;;;0.85;;
45366;SDS011;31100;55.848;37.636;2023-02-15T11:23:01;1.40;;;0.80;;
45366;SDS011;31100;55.848;37.636;2023-02-15T11:25:30;3.45;;;0.90;;
45366;SDS011;31100;55.848;37.636;2023-02-15T11:27:57;2.80;;;0.95;;
45366;SDS011;31100;55.848;37.636;2023-02-15T11:30:40;2.38;;;0.90;;
45366;SDS011;31100;55.848;37.636;2023-02-15T11:33:20;1.92;;;0.93;;
45366;SDS011;31100;55.848;37.636;2023-02-15T11:38:23;2.72;;;0.82;;
45366;SDS011;31100;55.848;37.636;2023-02-15T11:40:52;3.50;;;0.95;;
45366;SDS011;31100;55.848;37.636;2023-02-15T11:43:41;3.17;;;1.00;;
45366;SDS011;31100;55.848;37.636;2023-02-15T11:46:28;2.90;;;1.42;;
45366;SDS011;31100;55.848;37.636;2023-02-15T11:48:53;2.35;;;0.75;;
45366;SDS011;31100;55.848;37.636;2023-02-15T11:51:20;2.35;;;1.08;;
45366;SDS011;31100;55.848;37.636;2023-02-15T11:53:46;4.18;;;1.00;;
45366;SDS011;31100;55.848;37.636;2023-02-15T11:56:16;1.92;;;0.90;;
45366;SDS011;31100;55.848;37.636;2023-02-15T12:01:18;3.60;;;1.30;;
45366;SDS011;31100;55.848;37.636;2023-02-15T12:03:50;2.15;;;1.00;;
45366;SDS011;31100;55.848;37.636;2023-02-15T12:06:20;2.72;;;0.90;;
45366;SDS011;31100;55.848;37.636;2023-02-15T12:08:49;2.67;;;0.90;;
45366;SDS011;31100;55.848;37.636;2023-02-15T12:11:25;2.97;;;1.50;;
45366;SDS011;31100;55.848;37.636;2023-02-15T12:16:21;2.63;;;0.95;;
45366;SDS011;31100;55.848;37.636;2023-02-15T12:18:49;2.92;;;1.70;;
45366;SDS011;31100;55.848;37.636;2023-02-15T12:23:58;2.50;;;1.00;;
45366;SDS011;31100;55.848;37.636;2023-02-15T12:26:29;2.05;;;1.00;;
45366;SDS011;31100;55.848;37.636;2023-02-15T12:29:17;2.05;;;1.08;;
45366;SDS011;31100;55.848;37.636;2023-02-15T12:31:45;2.60;;;1.23;;
45366;SDS011;31100;55.848;37.636;2023-02-15T12:34:14;2.42;;;0.82;;
45366;SDS011;31100;55.848;37.636;2023-02-15T12:36:44;3.63;;;1.20;;
45366;SDS011;31100;55.848;37.636;2023-02-15T12:39:16;2.70;;;1.02;;
45366;SDS011;31100;55.848;37.636;2023-02-15T12:41:45;2.30;;;0.90;;
45366;SDS011;31100;55.848;37.636;2023-02-15T12:44:21;2.00;;;0.80;;
45366;SDS011;31100;55.848;37.636;2023-02-15T12:46:59;1.58;;;0.90;;
45366;SDS011;31100;55.848;37.636;2023-02-15T12:49:30;2.38;;;0.88;;
45366;SDS011;31100;55.848;37.636;2023-02-15T12:51:58;2.47;;;0.90;;
45366;SDS011;31100;55.848;37.636;2023-02-15T12:59:53;2.30;;;1.00;;
45366;SDS011;31100;55.848;37.636;2023-02-15T13:02:33;3.58;;;1.88;;
45366;SDS011;31100;55.848;37.636;2023-02-15T13:08:01;2.67;;;1.17;;
45366;SDS011;31100;55.848;37.636;2023-02-15T13:10:36;1.85;;;0.93;;
45366;SDS011;31100;55.848;37.636;2023-02-15T13:13:09;2.78;;;0.88;;
45366;SDS011;31100;55.848;37.636;2023-02-15T13:15:36;4.30;;;1.00;;
45366;SDS011;31100;55.848;37.636;2023-02-15T13:18:04;2.55;;;0.85;;
45366;SDS011;31100;55.848;37.636;2023-02-15T13:20:31;2.28;;;0.90;;
45366;SDS011;31100;55.848;37.636;2023-02-15T13:22:58;1.98;;;1.08;;
45366;SDS011;31100;55.848;37.636;2023-02-15T13:25:28;2.30;;;1.00;;
45366;SDS011;31100;55.848;37.636;2023-02-15T13:27:56;1.85;;;0.80;;
45366;SDS011;31100;55.848;37.636;2023-02-15T13:35:59;2.50;;;1.05;;
45366;SDS011;31100;55.848;37.636;2023-02-15T13:41:16;2.15;;;0.90;;
45366;SDS011;31100;55.848;37.636;2023-02-15T13:57:08;2.65;;;1.10;;
45366;SDS011;31100;55.848;37.636;2023-02-15T13:59:48;2.58;;;1.35;;
45366;SDS011;31100;55.848;37.636;2023-02-15T14:05:31;2.45;;;1.20;;
45366;SDS011;31100;55.848;37.636;2023-02-15T14:08:13;4.43;;;1.10;;
45366;SDS011;31100;55.848;37.636;2023-02-15T14:15:55;3.75;;;1.58;;
45366;SDS011;31100;55.848;37.636;2023-02-15T14:21:33;3.42;;;1.00;;
45366;SDS011;31100;55.848;37.636;2023-02-15T14:31:44;1.80;;;0.90;;
45366;SDS011;31100;55.848;37.636;2023-02-15T14:34:18;2.72;;;1.17;;
45366;SDS011;31100;55.848;37.636;2023-02-15T14:36:44;3.38;;;1.27;;
45366;SDS011;31100;55.848;37.636;2023-02-15T14:39:20;2.60;;;1.13;;
45366;SDS011;31100;55.848;37.636;2023-02-15T14:42:17;3.25;;;1.40;;
45366;SDS011;31100;55.848;37.636;2023-02-15T14:44:48;2.88;;;1.00;;
45366;SDS011;31100;55.848;37.636;2023-02-15T14:49:47;2.42;;;0.93;;
45366;SDS011;31100;55.848;37.636;2023-02-15T14:52:13;2.95;;;1.10;;
45366;SDS011;31100;55.848;37.636;2023-02-15T14:59:43;4.95;;;1.88;;
45366;SDS011;31100;55.848;37.636;2023-02-15T15:02:29;2.53;;;1.08;;
45366;SDS011;31100;55.848;37.636;2023-02-15T15:05:16;3.80;;;1.05;;
45366;SDS011;31100;55.848;37.636;2023-02-15T15:12:51;2.08;;;0.93;;
45366;SDS011;31100;55.848;37.636;2023-02-15T15:17:54;2.30;;;1.10;;
45366;SDS011;31100;55.848;37.636;2023-02-15T15:23:55;2.17;;;0.95;;
45366;SDS011;31100;55.848;37.636;2023-02-15T15:26:23;1.83;;;0.90;;
45366;SDS011;31100;55.848;37.636;2023-02-15T15:28:54;1.40;;;0.80;;
45366;SDS011;31100;55.848;37.636;2023-02-15T15:50:58;2.45;;;0.70;;
45366;SDS011;31100;55.848;37.636;2023-02-15T15:53:26;3.10;;;0.70;;
45366;SDS011;31100;55.848;37.636;2023-02-15T15:55:59;1.63;;;0.90;;
45366;SDS011;31100;55.848;37.636;2023-02-15T15:58:28;1.50;;;0.70;;
45366;SDS011;31100;55.848;37.636;2023-02-15T16:01:06;1.80;;;0.80;;
45366;SDS011;31100;55.848;37.636;2023-02-15T16:03:34;1.30;;;0.80;;
45366;SDS011;31100;55.848;37.636;2023-02-15T16:05:59;2.03;;;1.05;;
45366;SDS011;31100;55.848;37.636;2023-02-15T16:08:26;1.35;;;0.77;;
45366;SDS011;31100;55.848;37.636;2023-02-15T16:10:53;2.30;;;0.90;;
45366;SDS011;31100;55.848;37.636;2023-02-15T16:13:18;2.58;;;0.80;;
45366;SDS011;31100;55.848;37.636;2023-02-15T16:15:45;3.33;;;0.73;;
45366;SDS011;31100;55.848;37.636;2023-02-15T16:18:18;1.50;;;0.80;;
45366;SDS011;31100;55.848;37.636;2023-02-15T16:20:53;2.08;;;0.65;;
45366;SDS011;31100;55.848;37.636;2023-02-15T16:26:18;1.67;;;0.70;;
45366;SDS011;31100;55.848;37.636;2023-02-15T16:29:15;2.28;;;1.00;;
45366;SDS011;31100;55.848;37.636;2023-02-15T16:31:42;2.65;;;0.90;;
45366;SDS011;31100;55.848;37.636;2023-02-15T16:34:17;3.22;;;1.10;;
45366;SDS011;31100;55.848;37.636;2023-02-15T16:36:43;2.58;;;1.00;;
45366;SDS011;31100;55.848;37.636;2023-02-15T16:39:19;2.92;;;0.98;;
45366;SDS011;31100;55.848;37.636;2023-02-15T16:41:45;2.40;;;0.82;;
45366;SDS011;31100;55.848;37.636;2023-02-15T16:44:15;2.42;;;0.60;;
45366;SDS011;31100;55.848;37.636;2023-02-15T16:46:43;1.70;;;0.82;;
45366;SDS011;31100;55.848;37.636;2023-02-15T16:49:15;2.20;;;0.90;;
45366;SDS011;31100;55.848;37.636;2023-02-15T16:51:43;3.00;;;0.80;;
45366;SDS011;31100;55.848;37.636;2023-02-15T16:54:14;2.63;;;1.02;;
45366;SDS011;31100;55.848;37.636;2023-02-15T16:56:45;2.78;;;1.10;;
45366;SDS011;31100;55.848;37.636;2023-02-15T16:59:34;1.85;;;0.90;;
45366;SDS011;31100;55.848;37.636;2023-02-15T17:02:04;2.60;;;1.10;;
45366;SDS011;31100;55.848;37.636;2023-02-15T17:04:31;1.80;;;0.90;;
45366;SDS011;31100;55.848;37.636;2023-02-15T17:07:14;2.00;;;1.10;;
45366;SDS011;31100;55.848;37.636;2023-02-15T17:09:56;3.63;;;1.23;;
45366;SDS011;31100;55.848;37.636;2023-02-15T17:12:43;3.10;;;1.10;;
45366;SDS011;31100;55.848;37.636;2023-02-15T17:15:33;2.20;;;1.00;;
45366;SDS011;31100;55.848;37.636;2023-02-15T17:18:05;2.50;;;1.10;;
45366;SDS011;31100;55.848;37.636;2023-02-15T17:20:36;1.73;;;0.90;;
45366;SDS011;31100;55.848;37.636;2023-02-15T17:23:03;2.47;;;1.00;;
45366;SDS011;31100;55.848;37.636;2023-02-15T17:25:36;2.40;;;1.08;;
45366;SDS011;31100;55.848;37.636;2023-02-15T17:28:03;2.72;;;1.00;;
45366;SDS011;31100;55.848;37.636;2023-02-15T17:30:31;3.22;;;1.17;;
45366;SDS011;31100;55.848;37.636;2023-02-15T17:32:59;2.95;;;1.23;;
45366;SDS011;31100;55.848;37.636;2023-02-15T17:35:28;2.42;;;1.08;;
45366;SDS011;31100;55.848;37.636;2023-02-15T17:38:02;4.32;;;1.10;;
45366;SDS011;31100;55.848;37.636;2023-02-15T17:42:54;3.05;;;1.10;;
45366;SDS011;31100;55.848;37.636;2023-02-15T17:45:20;3.05;;;0.98;;
45366;SDS011;31100;55.848;37.636;2023-02-15T17:47:48;3.67;;;1.30;;
45366;SDS011;31100;55.848;37.636;2023-02-15T17:50:19;2.17;;;1.17;;
45366;SDS011;31100;55.848;37.636;2023-02-15T17:52:46;2.30;;;1.10;;
45366;SDS011;31100;55.848;37.636;2023-02-15T17:55:12;3.30;;;1.40;;
45366;SDS011;31100;55.848;37.636;2023-02-15T17:57:58;2.35;;;1.10;;
45366;SDS011;31100;55.848;37.636;2023-02-15T18:00:24;2.13;;;1.33;;
45366;SDS011;31100;55.848;37.636;2023-02-15T18:03:09;2.17;;;1.00;;
45366;SDS011;31100;55.848;37.636;2023-02-15T18:05:53;3.65;;;1.20;;
45366;SDS011;31100;55.848;37.636;2023-02-15T18:08:37;2.13;;;1.10;;
45366;SDS011;31100;55.848;37.636;2023-02-15T18:11:21;2.63;;;1.10;;
45366;SDS011;31100;55.848;37.636;2023-02-15T18:14:06;3.58;;;1.20;;
45366;SDS011;31100;55.848;37.636;2023-02-15T18:16:34;2.80;;;1.30;;